DAL38 KLAX-KSAN
Flight info
| Callsign | DAL38 |
|---|---|
| Flight time | 0h 28m |
| Altitude | 13000 |
| Route | LAXX1 MZB |
| Aircraft | B738/M-SDE2E3FGHIRWXY/LB1 |
Departure
| Time | 2026-04-20 03:52 |
|---|---|
| Airport | Los Angeles International Airport (KLAX) |
Arrival
| Time | 2026-04-20 04:21 |
|---|---|
| Airport | San Diego International Airport (KSAN) |
| Time | Latitude | Longitude | Altitude | Speed | Heading |
|---|---|---|---|---|---|
| 2026-04-20 03:22 | 33.94613 | -118.40325 | 94 ft | 0 kts | 248° |
| 2026-04-20 03:36 | 33.94613 | -118.40323 | 94 ft | 1 kts | 249° |
| 2026-04-20 03:36 | 33.94619 | -118.40304 | 95 ft | 3 kts | 249° |
| 2026-04-20 03:36 | 33.94626 | -118.40282 | 93 ft | 3 kts | 249° |
| 2026-04-20 03:37 | 33.94632 | -118.40259 | 94 ft | 3 kts | 268° |
| 2026-04-20 03:37 | 33.94630 | -118.40244 | 95 ft | 2 kts | 321° |
| 2026-04-20 03:37 | 33.94633 | -118.40245 | 94 ft | 2 kts | 328° |
| 2026-04-20 03:37 | 33.94651 | -118.40251 | 96 ft | 3 kts | 352° |
| 2026-04-20 03:38 | 33.94671 | -118.40252 | 95 ft | 3 kts | 359° |
| 2026-04-20 03:38 | 33.94692 | -118.40252 | 95 ft | 3 kts | 358° |
| 2026-04-20 03:38 | 33.94711 | -118.40254 | 94 ft | 2 kts | 354° |
| 2026-04-20 03:38 | 33.94716 | -118.40255 | 97 ft | 0 kts | 353° |
| 2026-04-20 03:42 | 33.94717 | -118.40255 | 97 ft | 0 kts | 353° |
| 2026-04-20 03:42 | 33.94753 | -118.40260 | 95 ft | 11 kts | 353° |
| 2026-04-20 03:42 | 33.94807 | -118.40341 | 97 ft | 18 kts | 263° |
| 2026-04-20 03:42 | 33.94788 | -118.40514 | 97 ft | 23 kts | 263° |
| 2026-04-20 03:43 | 33.94769 | -118.40713 | 95 ft | 25 kts | 262° |
| 2026-04-20 03:43 | 33.94748 | -118.40914 | 97 ft | 25 kts | 263° |
| 2026-04-20 03:43 | 33.94728 | -118.41106 | 98 ft | 18 kts | 263° |
| 2026-04-20 03:43 | 33.94693 | -118.41267 | 96 ft | 22 kts | 260° |
| 2026-04-20 03:44 | 33.94621 | -118.41373 | 96 ft | 20 kts | 173° |
| 2026-04-20 03:44 | 33.94469 | -118.41350 | 95 ft | 24 kts | 172° |
| 2026-04-20 03:44 | 33.94289 | -118.41324 | 94 ft | 28 kts | 173° |
| 2026-04-20 03:44 | 33.94105 | -118.41297 | 95 ft | 27 kts | 173° |
| 2026-04-20 03:45 | 33.93908 | -118.41267 | 96 ft | 29 kts | 173° |
| 2026-04-20 03:45 | 33.93766 | -118.41255 | 101 ft | 12 kts | 203° |
| 2026-04-20 03:45 | 33.93742 | -118.41267 | 102 ft | 1 kts | 194° |
| 2026-04-20 03:45 | 33.93738 | -118.41251 | 103 ft | 6 kts | 71° |
| 2026-04-20 03:46 | 33.93762 | -118.41137 | 101 ft | 20 kts | 84° |
| 2026-04-20 03:46 | 33.93783 | -118.40932 | 101 ft | 29 kts | 83° |
| 2026-04-20 03:46 | 33.93808 | -118.40686 | 101 ft | 29 kts | 83° |
| 2026-04-20 03:46 | 33.93833 | -118.40442 | 102 ft | 29 kts | 84° |
| 2026-04-20 03:47 | 33.93857 | -118.40211 | 103 ft | 27 kts | 83° |
| 2026-04-20 03:47 | 33.93879 | -118.39995 | 104 ft | 25 kts | 83° |
| 2026-04-20 03:47 | 33.93899 | -118.39793 | 102 ft | 23 kts | 83° |
| 2026-04-20 03:47 | 33.93918 | -118.39603 | 102 ft | 23 kts | 83° |
| 2026-04-20 03:48 | 33.93938 | -118.39412 | 101 ft | 24 kts | 83° |
| 2026-04-20 03:48 | 33.93959 | -118.39212 | 100 ft | 24 kts | 83° |
| 2026-04-20 03:48 | 33.93978 | -118.39020 | 101 ft | 23 kts | 83° |
| 2026-04-20 03:48 | 33.93997 | -118.38837 | 101 ft | 22 kts | 83° |
| 2026-04-20 03:49 | 33.94016 | -118.38657 | 102 ft | 21 kts | 83° |
| 2026-04-20 03:49 | 33.94033 | -118.38481 | 102 ft | 21 kts | 83° |
| 2026-04-20 03:49 | 33.94047 | -118.38353 | 102 ft | 5 kts | 82° |
| 2026-04-20 03:49 | 33.94051 | -118.38310 | 102 ft | 6 kts | 83° |
| 2026-04-20 03:50 | 33.94060 | -118.38223 | 102 ft | 15 kts | 83° |
| 2026-04-20 03:50 | 33.94075 | -118.38082 | 102 ft | 15 kts | 83° |
| 2026-04-20 03:50 | 33.94073 | -118.38020 | 102 ft | 0 kts | 119° |
| 2026-04-20 03:51 | 33.94061 | -118.38008 | 103 ft | 5 kts | 147° |
| 2026-04-20 03:51 | 33.94016 | -118.37997 | 108 ft | 8 kts | 178° |
| 2026-04-20 03:52 | 33.93981 | -118.38070 | 108 ft | 15 kts | 263° |
| 2026-04-20 03:52 | 33.93946 | -118.38408 | 109 ft | 82 kts | 263° |
| 2026-04-20 03:52 | 33.93840 | -118.39420 | 126 ft | 157 kts | 262° |
| 2026-04-20 03:52 | 33.93684 | -118.40868 | 773 ft | 178 kts | 262° |
| 2026-04-20 03:53 | 33.93522 | -118.42273 | 2128 ft | 164 kts | 262° |
| 2026-04-20 03:53 | 33.93367 | -118.43706 | 2752 ft | 184 kts | 261° |
| 2026-04-20 03:53 | 33.93193 | -118.45316 | 3343 ft | 202 kts | 260° |
| 2026-04-20 03:53 | 33.92988 | -118.47011 | 4029 ft | 210 kts | 257° |
| 2026-04-20 03:54 | 33.92405 | -118.48604 | 4627 ft | 210 kts | 227° |
| 2026-04-20 03:54 | 33.91221 | -118.49637 | 5140 ft | 215 kts | 201° |
| 2026-04-20 03:54 | 33.89805 | -118.50320 | 5681 ft | 225 kts | 199° |
| 2026-04-20 03:54 | 33.88310 | -118.51003 | 6287 ft | 232 kts | 199° |
| 2026-04-20 03:55 | 33.86766 | -118.51736 | 6776 ft | 245 kts | 201° |
| 2026-04-20 03:55 | 33.85114 | -118.52565 | 7125 ft | 268 kts | 201° |
| 2026-04-20 03:55 | 33.83388 | -118.53433 | 7919 ft | 272 kts | 201° |
| 2026-04-20 03:55 | 33.81641 | -118.54314 | 8849 ft | 273 kts | 201° |
| 2026-04-20 03:56 | 33.79881 | -118.55201 | 9751 ft | 275 kts | 201° |
| 2026-04-20 03:56 | 33.78099 | -118.56094 | 10471 ft | 283 kts | 200° |
| 2026-04-20 03:56 | 33.76130 | -118.56797 | 10686 ft | 308 kts | 193° |
| 2026-04-20 03:56 | 33.73957 | -118.57393 | 10874 ft | 332 kts | 192° |
| 2026-04-20 03:57 | 33.71624 | -118.58002 | 11053 ft | 354 kts | 192° |
| 2026-04-20 03:57 | 33.69167 | -118.58633 | 11468 ft | 366 kts | 191° |
| 2026-04-20 03:57 | 33.66632 | -118.59025 | 12112 ft | 370 kts | 176° |
| 2026-04-20 03:57 | 33.64157 | -118.58197 | 12768 ft | 375 kts | 153° |
| 2026-04-20 03:58 | 33.62153 | -118.56245 | 12988 ft | 382 kts | 130° |
| 2026-04-20 03:58 | 33.60752 | -118.53448 | 13035 ft | 398 kts | 120° |
| 2026-04-20 03:58 | 33.59438 | -118.50500 | 13025 ft | 403 kts | 121° |
| 2026-04-20 03:58 | 33.58099 | -118.47555 | 13020 ft | 400 kts | 121° |
| 2026-04-20 03:59 | 33.56755 | -118.44630 | 13023 ft | 400 kts | 121° |
| 2026-04-20 03:59 | 33.55402 | -118.41710 | 13025 ft | 399 kts | 121° |
| 2026-04-20 03:59 | 33.54046 | -118.38798 | 13028 ft | 399 kts | 121° |
| 2026-04-20 03:59 | 33.52690 | -118.35892 | 13025 ft | 399 kts | 121° |
| 2026-04-20 04:00 | 33.51330 | -118.32984 | 13029 ft | 399 kts | 121° |
| 2026-04-20 04:00 | 33.49969 | -118.30081 | 13033 ft | 399 kts | 121° |
| 2026-04-20 04:00 | 33.48622 | -118.27213 | 13036 ft | 400 kts | 121° |
| 2026-04-20 04:00 | 33.47258 | -118.24315 | 13034 ft | 400 kts | 121° |
| 2026-04-20 04:01 | 33.45889 | -118.21408 | 13031 ft | 400 kts | 121° |
| 2026-04-20 04:01 | 33.44520 | -118.18503 | 13022 ft | 401 kts | 121° |
| 2026-04-20 04:01 | 33.43155 | -118.15609 | 13020 ft | 401 kts | 121° |
| 2026-04-20 04:01 | 33.41781 | -118.12698 | 13016 ft | 401 kts | 121° |
| 2026-04-20 04:02 | 33.40409 | -118.09794 | 12994 ft | 401 kts | 121° |
| 2026-04-20 04:02 | 33.39037 | -118.06893 | 12993 ft | 400 kts | 121° |
| 2026-04-20 04:02 | 33.37661 | -118.03984 | 12988 ft | 400 kts | 121° |
| 2026-04-20 04:02 | 33.36298 | -118.01108 | 12995 ft | 401 kts | 121° |
| 2026-04-20 04:03 | 33.34918 | -117.98195 | 13000 ft | 401 kts | 121° |
| 2026-04-20 04:03 | 33.33542 | -117.95294 | 12999 ft | 401 kts | 121° |
| 2026-04-20 04:03 | 33.32163 | -117.92389 | 12997 ft | 401 kts | 121° |
| 2026-04-20 04:03 | 33.30783 | -117.89485 | 13002 ft | 401 kts | 121° |
| 2026-04-20 04:04 | 33.29402 | -117.86581 | 13003 ft | 401 kts | 121° |
| 2026-04-20 04:04 | 33.28022 | -117.83681 | 13002 ft | 401 kts | 121° |
| 2026-04-20 04:04 | 33.26639 | -117.80777 | 13007 ft | 401 kts | 121° |
| 2026-04-20 04:04 | 33.25271 | -117.77906 | 12771 ft | 392 kts | 121° |
| 2026-04-20 04:05 | 33.23955 | -117.75143 | 12518 ft | 385 kts | 121° |
| 2026-04-20 04:05 | 33.22617 | -117.72341 | 12266 ft | 382 kts | 121° |
| 2026-04-20 04:05 | 33.21317 | -117.69620 | 12031 ft | 382 kts | 121° |
| 2026-04-20 04:05 | 33.19999 | -117.66866 | 11780 ft | 381 kts | 121° |
| 2026-04-20 04:06 | 33.18684 | -117.64117 | 11537 ft | 381 kts | 121° |
| 2026-04-20 04:06 | 33.17369 | -117.61372 | 11297 ft | 380 kts | 121° |
| 2026-04-20 04:06 | 33.16061 | -117.58643 | 11072 ft | 378 kts | 121° |
| 2026-04-20 04:06 | 33.14754 | -117.55917 | 11000 ft | 378 kts | 121° |
| 2026-04-20 04:07 | 33.13450 | -117.53200 | 10873 ft | 378 kts | 121° |
| 2026-04-20 04:07 | 33.12142 | -117.50475 | 10624 ft | 376 kts | 121° |
| 2026-04-20 04:07 | 33.10848 | -117.47782 | 10388 ft | 374 kts | 121° |
| 2026-04-20 04:07 | 33.09557 | -117.45096 | 10153 ft | 373 kts | 121° |
| 2026-04-20 04:08 | 33.08279 | -117.42439 | 9915 ft | 365 kts | 121° |
| 2026-04-20 04:08 | 33.07028 | -117.39840 | 9651 ft | 356 kts | 121° |
| 2026-04-20 04:08 | 33.05816 | -117.37325 | 9385 ft | 345 kts | 121° |
| 2026-04-20 04:08 | 33.04600 | -117.34954 | 9113 ft | 334 kts | 129° |
| 2026-04-20 04:09 | 33.02929 | -117.33107 | 8864 ft | 323 kts | 147° |
| 2026-04-20 04:09 | 33.00951 | -117.31946 | 8611 ft | 313 kts | 160° |
| 2026-04-20 04:09 | 32.98917 | -117.31095 | 8360 ft | 306 kts | 162° |
| 2026-04-20 04:09 | 32.96918 | -117.30291 | 8108 ft | 300 kts | 162° |
| 2026-04-20 04:10 | 32.94966 | -117.29503 | 7860 ft | 290 kts | 162° |
| 2026-04-20 04:10 | 32.93095 | -117.28739 | 7603 ft | 278 kts | 161° |
| 2026-04-20 04:10 | 32.91904 | -117.28248 | 7431 ft | 270 kts | 161° |
| 2026-04-20 04:10 | 32.90165 | -117.27527 | 7192 ft | 260 kts | 161° |
| 2026-04-20 04:11 | 32.88478 | -117.26825 | 6952 ft | 254 kts | 161° |
| 2026-04-20 04:11 | 32.86816 | -117.26132 | 6711 ft | 252 kts | 161° |
| 2026-04-20 04:11 | 32.85161 | -117.25441 | 6492 ft | 251 kts | 161° |
| 2026-04-20 04:11 | 32.82981 | -117.24531 | 6174 ft | 250 kts | 161° |
| 2026-04-20 04:12 | 32.81900 | -117.23969 | 6047 ft | 252 kts | 147° |
| 2026-04-20 04:12 | 32.80821 | -117.22334 | 6021 ft | 260 kts | 112° |
| 2026-04-20 04:12 | 32.80348 | -117.20244 | 6010 ft | 263 kts | 105° |
| 2026-04-20 04:12 | 32.79980 | -117.18117 | 5988 ft | 262 kts | 104° |
| 2026-04-20 04:13 | 32.79622 | -117.16015 | 5978 ft | 263 kts | 105° |
| 2026-04-20 04:13 | 32.79249 | -117.13886 | 5985 ft | 261 kts | 105° |
| 2026-04-20 04:13 | 32.78873 | -117.11802 | 5975 ft | 255 kts | 105° |
| 2026-04-20 04:13 | 32.78506 | -117.09789 | 5971 ft | 245 kts | 105° |
| 2026-04-20 04:14 | 32.78148 | -117.07846 | 5972 ft | 235 kts | 105° |
| 2026-04-20 04:14 | 32.77794 | -117.05985 | 5970 ft | 226 kts | 108° |
| 2026-04-20 04:14 | 32.77368 | -117.04207 | 5973 ft | 223 kts | 110° |
| 2026-04-20 04:14 | 32.76923 | -117.02416 | 5984 ft | 226 kts | 110° |
| 2026-04-20 04:15 | 32.76478 | -117.00613 | 5857 ft | 229 kts | 110° |
| 2026-04-20 04:15 | 32.76028 | -116.98785 | 5705 ft | 232 kts | 110° |
| 2026-04-20 04:15 | 32.75382 | -116.97051 | 5462 ft | 229 kts | 131° |
| 2026-04-20 04:15 | 32.74169 | -116.95893 | 5156 ft | 223 kts | 161° |
| 2026-04-20 04:16 | 32.72671 | -116.95821 | 4860 ft | 218 kts | 198° |
| 2026-04-20 04:16 | 32.71282 | -116.96451 | 4590 ft | 216 kts | 201° |
| 2026-04-20 04:16 | 32.69883 | -116.97097 | 4288 ft | 216 kts | 202° |
| 2026-04-20 04:16 | 32.68711 | -116.98170 | 3953 ft | 217 kts | 238° |
| 2026-04-20 04:17 | 32.68411 | -116.99865 | 3791 ft | 210 kts | 279° |
| 2026-04-20 04:17 | 32.68850 | -117.01474 | 3567 ft | 202 kts | 290° |
| 2026-04-20 04:17 | 32.69365 | -117.02988 | 3279 ft | 194 kts | 288° |
| 2026-04-20 04:17 | 32.69811 | -117.04481 | 2904 ft | 188 kts | 289° |
| 2026-04-20 04:18 | 32.70236 | -117.05909 | 2602 ft | 180 kts | 287° |
| 2026-04-20 04:18 | 32.70572 | -117.07338 | 2303 ft | 179 kts | 284° |
| 2026-04-20 04:18 | 32.70887 | -117.08751 | 2006 ft | 173 kts | 285° |
| 2026-04-20 04:18 | 32.71208 | -117.10093 | 1707 ft | 165 kts | 285° |
| 2026-04-20 04:19 | 32.71521 | -117.11377 | 1395 ft | 158 kts | 286° |
| 2026-04-20 04:19 | 32.71814 | -117.12600 | 1160 ft | 152 kts | 285° |
| 2026-04-20 04:19 | 32.72109 | -117.13774 | 933 ft | 148 kts | 286° |
| 2026-04-20 04:19 | 32.72392 | -117.14945 | 732 ft | 148 kts | 284° |
| 2026-04-20 04:20 | 32.72659 | -117.16118 | 482 ft | 145 kts | 285° |
| 2026-04-20 04:20 | 32.72945 | -117.17272 | 194 ft | 145 kts | 286° |
| 2026-04-20 04:20 | 32.73220 | -117.18405 | 31 ft | 139 kts | 286° |
| 2026-04-20 04:20 | 32.73448 | -117.19337 | 21 ft | 88 kts | 286° |
| 2026-04-20 04:21 | 32.73588 | -117.19914 | 25 ft | 59 kts | 286° |
| 2026-04-20 04:21 | 32.73639 | -117.20170 | 21 ft | 17 kts | 255° |
| 2026-04-20 04:21 | 32.73598 | -117.20208 | 21 ft | 0 kts | 195° |
| 2026-04-20 04:22 | 32.73588 | -117.20212 | 24 ft | 4 kts | 195° |
| 2026-04-20 04:22 | 32.73528 | -117.20232 | 21 ft | 14 kts | 196° |
| 2026-04-20 04:22 | 32.73430 | -117.20265 | 20 ft | 6 kts | 196° |
| 2026-04-20 04:23 | 32.73371 | -117.20277 | 20 ft | 10 kts | 172° |
| 2026-04-20 04:23 | 32.73313 | -117.20266 | 20 ft | 9 kts | 196° |
| 2026-04-20 04:23 | 32.73275 | -117.20304 | 20 ft | 3 kts | 221° |
| 2026-04-20 04:23 | 32.73257 | -117.20324 | 22 ft | 3 kts | 223° |
| 2026-04-20 04:24 | 32.73251 | -117.20331 | 20 ft | 0 kts | 223° |